PWSweather.com
Personal Weather Stations
Station Observations
COONRAPIDS
Minneapolis, MN 55433

Minneapolis, MN 55433

Lat: 45.187721, Lon: -93.36828

Elevation: 898

Station Type: Davis Vantage Pro 2

High Low Average
Temperature 74.3°F23.5°C 59.6°F15.3°C 67.6°F19.8°C
Dew Point 66.7°F19.3°C 55.4°F13.0°C 60.6°F15.9°C
Winds 2.3 mph 3.7 kmh Calm Calm Calm WSWCalm WSW
Wind Gusts 9.2 mph14.8 kmh -- 1.0 mph1.6 kmh
Humidity 90% 58% 79%
Pressure 29.84 in1010.5 mb 29.62 in1003.0 mb -
Precipitation 1.75 in44.5 mm - -
Hour Temp Dew Point Humidity Winds Wind Gusts Pressure Precip Precip Rate Daily Precip Total
12:00 AM 73.8°F23.2°C 66.1°F18.9°C 77% Calm Calm -- 29.78 in1008.5 mb - 0.00 in0.0 mm 0.00 in0.0 mm
12:10 AM 73.9°F23.3°C 66.2°F19.0°C 77% Calm Calm -- 29.78 in1008.5 mb - 0.00 in0.0 mm 0.00 in0.0 mm
12:20 AM 73.9°F23.3°C 65.9°F18.8°C 76% Calm Calm -- 29.78 in1008.5 mb - 0.00 in0.0 mm 0.00 in0.0 mm
12:30 AM 74.1°F23.4°C 66.0°F18.9°C 76% Calm Calm -- 29.78 in1008.5 mb - 0.00 in0.0 mm 0.00 in0.0 mm
12:40 AM 74.2°F23.4°C 65.8°F18.8°C 75% Calm Calm -- 29.77 in1008.1 mb - 0.00 in0.0 mm 0.00 in0.0 mm
12:50 AM 74.3°F23.5°C 66.2°F19.0°C 76% Calm Calm -- 29.76 in1007.8 mb - 0.00 in0.0 mm 0.00 in0.0 mm
01:00 AM 74.2°F23.4°C 66.1°F18.9°C 76% Calm Calm -- 29.76 in1007.8 mb - 0.00 in0.0 mm 0.00 in0.0 mm
01:10 AM 74.2°F23.4°C 66.5°F19.2°C 77% Calm Calm -- 29.76 in1007.8 mb - 0.00 in0.0 mm 0.00 in0.0 mm
01:20 AM 74.0°F23.3°C 66.7°F19.3°C 78% Calm Calm -- 29.76 in1007.8 mb - 0.00 in0.0 mm 0.00 in0.0 mm
01:30 AM 73.8°F23.2°C 66.5°F19.2°C 78% Calm Calm 3.5 mph5.6 kmh 29.76 in1007.8 mb - 0.00 in0.0 mm 0.00 in0.0 mm
01:40 AM 73.4°F23.0°C 65.8°F18.8°C 77% Calm Calm -- 29.74 in1007.1 mb - 0.00 in0.0 mm 0.00 in0.0 mm
01:50 AM 73.2°F22.9°C 65.5°F18.6°C 77% Calm Calm -- 29.74 in1007.1 mb - 0.00 in0.0 mm 0.00 in0.0 mm
02:00 AM 73.0°F22.8°C 65.0°F18.3°C 76% Calm Calm -- 29.74 in1007.1 mb - 0.00 in0.0 mm 0.00 in0.0 mm
02:10 AM 72.9°F22.7°C 64.5°F18.1°C 75% Calm Calm -- 29.75 in1007.5 mb - 0.00 in0.0 mm 0.00 in0.0 mm
02:20 AM 72.8°F22.7°C 64.4°F18.0°C 75% Calm Calm -- 29.75 in1007.5 mb - 0.00 in0.0 mm 0.00 in0.0 mm
02:30 AM 72.7°F22.6°C 64.3°F17.9°C 75% Calm Calm -- 29.74 in1007.1 mb - 0.00 in0.0 mm 0.00 in0.0 mm
02:40 AM 72.4°F22.4°C 64.0°F17.8°C 75% Calm Calm -- 29.74 in1007.1 mb - 0.00 in0.0 mm 0.00 in0.0 mm
02:50 AM 72.2°F22.3°C 64.2°F17.9°C 76% Calm Calm -- 29.74 in1007.1 mb - 0.00 in0.0 mm 0.00 in0.0 mm
03:00 AM 72.0°F22.2°C 63.6°F17.6°C 75% Calm Calm -- 29.74 in1007.1 mb - 0.00 in0.0 mm 0.00 in0.0 mm
03:10 AM 71.9°F22.2°C 63.9°F17.7°C 76% Calm Calm -- 29.74 in1007.1 mb - 0.00 in0.0 mm 0.00 in0.0 mm
03:20 AM 71.5°F21.9°C 63.9°F17.7°C 77% Calm Calm -- 29.73 in1006.8 mb - 0.00 in0.0 mm 0.00 in0.0 mm
03:30 AM 71.2°F21.8°C 64.0°F17.8°C 78% Calm Calm -- 29.73 in1006.8 mb - 0.00 in0.0 mm 0.00 in0.0 mm
03:40 AM 70.9°F21.6°C 64.4°F18.0°C 80% Calm Calm -- 29.72 in1006.4 mb - 0.00 in0.0 mm 0.00 in0.0 mm
03:50 AM 70.6°F21.4°C 64.5°F18.1°C 81% Calm Calm -- 29.72 in1006.4 mb - 0.00 in0.0 mm 0.00 in0.0 mm
04:00 AM 70.3°F21.3°C 64.5°F18.1°C 82% Calm Calm -- 29.72 in1006.4 mb - 0.00 in0.0 mm 0.00 in0.0 mm
04:10 AM 70.4°F21.3°C 64.6°F18.1°C 82% Calm Calm -- 29.71 in1006.1 mb - 0.00 in0.0 mm 0.00 in0.0 mm
04:20 AM 70.4°F21.3°C 64.6°F18.1°C 82% Calm Calm -- 29.71 in1006.1 mb - 0.00 in0.0 mm 0.00 in0.0 mm
04:30 AM 70.3°F21.3°C 64.2°F17.9°C 81% Calm Calm -- 29.70 in1005.8 mb - 0.00 in0.0 mm 0.00 in0.0 mm
04:40 AM 70.3°F21.3°C 64.5°F18.1°C 82% Calm Calm -- 29.70 in1005.8 mb - 0.00 in0.0 mm 0.00 in0.0 mm
04:50 AM 70.1°F21.2°C 64.7°F18.2°C 83% Calm Calm -- 29.69 in1005.4 mb - 0.01 in0.3 mm 0.01 in0.3 mm
05:00 AM 69.8°F21.0°C 64.4°F18.0°C 83% Calm Calm -- 29.68 in1005.1 mb - 0.00 in0.0 mm 0.01 in0.3 mm
05:10 AM 69.6°F20.9°C 64.5°F18.1°C 84% Calm Calm -- 29.68 in1005.1 mb - 0.00 in0.0 mm 0.01 in0.3 mm
05:20 AM 69.4°F20.8°C 64.4°F18.0°C 84% Calm Calm -- 29.68 in1005.1 mb - 0.00 in0.0 mm 0.01 in0.3 mm
05:30 AM 69.3°F20.7°C 64.6°F18.1°C 85% Calm Calm -- 29.67 in1004.7 mb - 0.00 in0.0 mm 0.01 in0.3 mm
05:40 AM 69.3°F20.7°C 64.6°F18.1°C 85% Calm Calm -- 29.66 in1004.4 mb - 0.00 in0.0 mm 0.01 in0.3 mm
05:50 AM 69.4°F20.8°C 65.0°F18.3°C 86% Calm Calm -- 29.66 in1004.4 mb - 0.00 in0.0 mm 0.01 in0.3 mm
06:00 AM 69.6°F20.9°C 65.2°F18.4°C 86% Calm Calm -- 29.65 in1004.1 mb - 0.00 in0.0 mm 0.01 in0.3 mm
06:10 AM 69.6°F20.9°C 65.2°F18.4°C 86% Calm Calm -- 29.65 in1004.1 mb - 0.00 in0.0 mm 0.01 in0.3 mm
06:20 AM 69.7°F20.9°C 65.3°F18.5°C 86% Calm Calm -- 29.65 in1004.1 mb - 0.00 in0.0 mm 0.01 in0.3 mm
06:30 AM 69.9°F21.1°C 65.5°F18.6°C 86% Calm Calm -- 29.65 in1004.1 mb - 0.00 in0.0 mm 0.01 in0.3 mm
06:40 AM 70.0°F21.1°C 65.6°F18.7°C 86% Calm Calm -- 29.65 in1004.1 mb - 0.00 in0.0 mm 0.01 in0.3 mm
06:50 AM 70.1°F21.2°C 65.4°F18.6°C 85% Calm Calm -- 29.65 in1004.1 mb - 0.00 in0.0 mm 0.01 in0.3 mm
07:00 AM 70.3°F21.3°C 65.6°F18.7°C 85% Calm Calm -- 29.65 in1004.1 mb - 0.00 in0.0 mm 0.01 in0.3 mm
07:10 AM 70.3°F21.3°C 65.6°F18.7°C 85% Calm Calm -- 29.65 in1004.1 mb - 0.00 in0.0 mm 0.01 in0.3 mm
07:20 AM 70.4°F21.3°C 65.7°F18.7°C 85% Calm Calm -- 29.65 in1004.1 mb - 0.00 in0.0 mm 0.01 in0.3 mm
07:30 AM 70.4°F21.3°C 65.7°F18.7°C 85% Calm Calm -- 29.64 in1003.7 mb - 0.00 in0.0 mm 0.01 in0.3 mm
07:40 AM 70.4°F21.3°C 65.7°F18.7°C 85% Calm Calm -- 29.64 in1003.7 mb - 0.00 in0.0 mm 0.01 in0.3 mm
07:50 AM 70.5°F21.4°C 65.8°F18.8°C 85% Calm Calm -- 29.64 in1003.7 mb - 0.00 in0.0 mm 0.01 in0.3 mm
08:00 AM 70.6°F21.4°C 65.9°F18.8°C 85% Calm Calm -- 29.64 in1003.7 mb - 0.00 in0.0 mm 0.01 in0.3 mm
08:10 AM 70.3°F21.3°C 64.9°F18.3°C 83% Calm Calm -- 29.64 in1003.7 mb - 0.00 in0.0 mm 0.01 in0.3 mm
08:20 AM 70.1°F21.2°C 65.0°F18.3°C 84% Calm Calm -- 29.64 in1003.7 mb - 0.00 in0.0 mm 0.01 in0.3 mm
08:30 AM 70.1°F21.2°C 65.4°F18.6°C 85% Calm Calm -- 29.64 in1003.7 mb - 0.02 in0.5 mm 0.03 in0.8 mm
08:40 AM 69.8°F21.0°C 65.5°F18.6°C 86% Calm Calm -- 29.64 in1003.7 mb - 0.02 in0.5 mm 0.05 in1.3 mm
08:50 AM 69.2°F20.7°C 64.8°F18.2°C 86% Calm Calm -- 29.64 in1003.7 mb - 0.02 in0.5 mm 0.07 in1.8 mm
09:00 AM 68.6°F20.3°C 64.3°F17.9°C 86% Calm Calm -- 29.64 in1003.7 mb - 0.02 in0.5 mm 0.09 in2.3 mm
09:10 AM 68.3°F20.2°C 64.3°F17.9°C 87% Calm Calm -- 29.63 in1003.4 mb - 0.02 in0.5 mm 0.11 in2.8 mm
09:20 AM 68.3°F20.2°C 64.3°F17.9°C 87% Calm Calm -- 29.64 in1003.7 mb - 0.06 in1.5 mm 0.17 in4.3 mm
09:30 AM 68.4°F20.2°C 64.7°F18.2°C 88% Calm Calm -- 29.64 in1003.7 mb - 0.20 in5.1 mm 0.35 in8.9 mm
09:40 AM 67.0°F19.4°C 62.7°F17.1°C 86% Calm Calm -- 29.63 in1003.4 mb - 0.25 in6.4 mm 0.57 in14.5 mm
09:50 AM 65.0°F18.3°C 60.7°F15.9°C 86% Calm Calm 1.2 mph1.9 kmh 29.63 in1003.4 mb - 0.27 in6.9 mm 0.82 in20.8 mm
10:00 AM 63.7°F17.6°C 59.8°F15.4°C 87% 1.2 mph N1.9 kmh N 2.3 mph3.7 kmh 29.63 in1003.4 mb - 0.14 in3.6 mm 0.93 in23.6 mm
10:10 AM 62.8°F17.1°C 58.8°F14.9°C 87% Calm Calm 3.5 mph5.6 kmh 29.63 in1003.4 mb - 0.09 in2.3 mm 1.01 in25.7 mm
10:20 AM 62.1°F16.7°C 58.5°F14.7°C 88% Calm Calm -- 29.63 in1003.4 mb - 0.04 in1.0 mm 1.04 in26.4 mm
10:30 AM 61.8°F16.6°C 58.2°F14.6°C 88% 1.2 mph NNW1.9 kmh NNW 3.5 mph5.6 kmh 29.64 in1003.7 mb - 0.08 in2.0 mm 1.12 in28.4 mm
10:40 AM 61.1°F16.2°C 57.5°F14.2°C 88% 2.3 mph N3.7 kmh N 3.5 mph5.6 kmh 29.65 in1004.1 mb - 0.14 in3.6 mm 1.24 in31.5 mm
10:50 AM 60.6°F15.9°C 57.0°F13.9°C 88% 1.2 mph NNW1.9 kmh NNW 4.6 mph7.4 kmh 29.66 in1004.4 mb - 0.09 in2.3 mm 1.33 in33.8 mm
11:00 AM 60.6°F15.9°C 57.3°F14.1°C 89% Calm Calm 1.2 mph1.9 kmh 29.66 in1004.4 mb - 0.18 in4.6 mm 1.50 in38.1 mm
11:10 AM 60.6°F15.9°C 57.3°F14.1°C 89% 2.3 mph NW3.7 kmh NW 3.5 mph5.6 kmh 29.68 in1005.1 mb - 0.10 in2.5 mm 1.58 in40.1 mm
11:20 AM 60.1°F15.6°C 56.8°F13.8°C 89% 2.3 mph W3.7 kmh W 8.1 mph13.0 kmh 29.68 in1005.1 mb - 0.06 in1.5 mm 1.63 in41.4 mm
11:30 AM 59.6°F15.3°C 56.4°F13.6°C 89% 2.3 mph WSW3.7 kmh WSW 9.2 mph14.8 kmh 29.70 in1005.8 mb - 0.06 in1.5 mm 1.68 in42.7 mm
11:40 AM 59.6°F15.3°C 56.4°F13.6°C 89% 2.3 mph NW3.7 kmh NW 3.5 mph5.6 kmh 29.70 in1005.8 mb - 0.04 in1.0 mm 1.72 in43.7 mm
11:50 AM 59.9°F15.5°C 56.6°F13.7°C 89% Calm Calm 3.5 mph5.6 kmh 29.67 in1004.7 mb - 0.03 in0.8 mm 1.74 in44.2 mm
12:00 PM 60.8°F16.0°C 57.8°F14.3°C 90% 2.3 mph NE3.7 kmh NE 3.5 mph5.6 kmh 29.62 in1003.0 mb - 0.01 in0.3 mm 1.75 in44.5 mm
12:10 PM 61.4°F16.3°C 58.5°F14.7°C 90% 2.3 mph NE3.7 kmh NE 4.6 mph7.4 kmh 29.62 in1003.0 mb - 0.00 in0.0 mm 1.75 in44.5 mm
12:20 PM 62.9°F17.2°C 60.0°F15.6°C 90% 2.3 mph NNE3.7 kmh NNE 3.5 mph5.6 kmh 29.63 in1003.4 mb - 0.00 in0.0 mm 1.75 in44.5 mm
12:30 PM 63.9°F17.7°C 60.9°F16.1°C 90% Calm Calm -- 29.66 in1004.4 mb - 0.00 in0.0 mm 1.75 in44.5 mm
12:40 PM 63.2°F17.3°C 59.6°F15.3°C 88% 2.3 mph WNW3.7 kmh WNW 3.5 mph5.6 kmh 29.72 in1006.4 mb - 0.00 in0.0 mm 1.75 in44.5 mm
12:50 PM 63.6°F17.6°C 60.0°F15.6°C 88% 2.3 mph WNW3.7 kmh WNW 4.6 mph7.4 kmh 29.72 in1006.4 mb - 0.00 in0.0 mm 1.75 in44.5 mm
01:00 PM 64.6°F18.1°C 60.0°F15.6°C 85% 1.2 mph NE1.9 kmh NE 2.3 mph3.7 kmh 29.72 in1006.4 mb - 0.00 in0.0 mm 1.75 in44.5 mm
01:10 PM 65.2°F18.4°C 59.9°F15.5°C 83% 1.2 mph NW1.9 kmh NW 8.1 mph13.0 kmh 29.71 in1006.1 mb - 0.00 in0.0 mm 1.75 in44.5 mm
01:20 PM 65.8°F18.8°C 59.8°F15.4°C 81% 1.2 mph N1.9 kmh N 4.6 mph7.4 kmh 29.70 in1005.8 mb - 0.00 in0.0 mm 1.75 in44.5 mm
01:30 PM 66.6°F19.2°C 58.8°F14.9°C 76% Calm Calm -- 29.72 in1006.4 mb - 0.00 in0.0 mm 1.75 in44.5 mm
01:40 PM 66.3°F19.1°C 57.8°F14.3°C 74% 1.2 mph N1.9 kmh N 1.2 mph1.9 kmh 29.74 in1007.1 mb - 0.00 in0.0 mm 1.75 in44.5 mm
01:50 PM 65.8°F18.8°C 57.7°F14.3°C 75% Calm Calm 3.5 mph5.6 kmh 29.75 in1007.5 mb - 0.00 in0.0 mm 1.75 in44.5 mm
02:00 PM 65.7°F18.7°C 57.2°F14.0°C 74% 1.2 mph WNW1.9 kmh WNW 4.6 mph7.4 kmh 29.75 in1007.5 mb - 0.00 in0.0 mm 1.75 in44.5 mm
02:10 PM 65.4°F18.6°C 57.3°F14.1°C 75% Calm Calm -- 29.75 in1007.5 mb - 0.00 in0.0 mm 1.75 in44.5 mm
02:20 PM 65.6°F18.7°C 57.5°F14.2°C 75% Calm Calm 2.3 mph3.7 kmh 29.76 in1007.8 mb - 0.00 in0.0 mm 1.75 in44.5 mm
02:30 PM 65.8°F18.8°C 56.9°F13.8°C 73% Calm Calm -- 29.76 in1007.8 mb - 0.00 in0.0 mm 1.75 in44.5 mm
02:40 PM 65.3°F18.5°C 56.8°F13.8°C 74% 1.2 mph N1.9 kmh N 3.5 mph5.6 kmh 29.77 in1008.1 mb - 0.00 in0.0 mm 1.75 in44.5 mm
02:50 PM 64.7°F18.2°C 56.6°F13.7°C 75% 1.2 mph NNW1.9 kmh NNW 2.3 mph3.7 kmh 29.77 in1008.1 mb - 0.00 in0.0 mm 1.75 in44.5 mm
03:00 PM 64.5°F18.1°C 56.8°F13.8°C 76% Calm Calm -- 29.77 in1008.1 mb - 0.00 in0.0 mm 1.75 in44.5 mm
03:10 PM 67.1°F19.5°C 58.1°F14.5°C 73% Calm Calm 3.5 mph5.6 kmh 29.77 in1008.1 mb - 0.00 in0.0 mm 1.75 in44.5 mm
03:20 PM 67.2°F19.6°C 57.9°F14.4°C 72% Calm Calm -- 29.78 in1008.5 mb - 0.00 in0.0 mm 1.75 in44.5 mm
03:30 PM 66.9°F19.4°C 57.6°F14.2°C 72% 1.2 mph WNW1.9 kmh WNW 8.1 mph13.0 kmh 29.78 in1008.5 mb - 0.00 in0.0 mm 1.75 in44.5 mm
03:40 PM 66.9°F19.4°C 58.0°F14.4°C 73% Calm Calm 2.3 mph3.7 kmh 29.79 in1008.8 mb - 0.00 in0.0 mm 1.75 in44.5 mm
03:50 PM 67.3°F19.6°C 57.5°F14.2°C 71% Calm Calm -- 29.78 in1008.5 mb - 0.00 in0.0 mm 1.75 in44.5 mm
04:00 PM 67.7°F19.8°C 56.7°F13.7°C 68% 1.2 mph WSW1.9 kmh WSW 3.5 mph5.6 kmh 29.79 in1008.8 mb - 0.00 in0.0 mm 1.75 in44.5 mm
04:10 PM 67.9°F19.9°C 57.4°F14.1°C 69% Calm Calm -- 29.79 in1008.8 mb - 0.00 in0.0 mm 1.75 in44.5 mm
04:20 PM 68.4°F20.2°C 57.5°F14.2°C 68% Calm Calm -- 29.79 in1008.8 mb - 0.00 in0.0 mm 1.75 in44.5 mm
04:30 PM 70.1°F21.2°C 59.0°F15.0°C 68% Calm Calm -- 29.79 in1008.8 mb - 0.00 in0.0 mm 1.75 in44.5 mm
04:40 PM 70.3°F21.3°C 57.5°F14.2°C 64% 1.2 mph WNW1.9 kmh WNW 3.5 mph5.6 kmh 29.79 in1008.8 mb - 0.00 in0.0 mm 1.75 in44.5 mm
04:50 PM 69.6°F20.9°C 57.3°F14.1°C 65% Calm Calm -- 29.79 in1008.8 mb - 0.00 in0.0 mm 1.75 in44.5 mm
05:00 PM 70.6°F21.4°C 57.4°F14.1°C 63% Calm Calm 3.5 mph5.6 kmh 29.79 in1008.8 mb - 0.00 in0.0 mm 1.75 in44.5 mm
05:10 PM 70.0°F21.1°C 57.3°F14.1°C 64% Calm Calm -- 29.79 in1008.8 mb - 0.00 in0.0 mm 1.75 in44.5 mm
05:20 PM 70.4°F21.3°C 57.6°F14.2°C 64% Calm Calm -- 29.80 in1009.1 mb - 0.00 in0.0 mm 1.75 in44.5 mm
05:30 PM 69.7°F20.9°C 56.9°F13.8°C 64% Calm Calm -- 29.80 in1009.1 mb - 0.00 in0.0 mm 1.75 in44.5 mm
05:40 PM 70.8°F21.6°C 56.6°F13.7°C 61% Calm Calm -- 29.80 in1009.1 mb - 0.00 in0.0 mm 1.75 in44.5 mm
05:50 PM 71.7°F22.1°C 56.6°F13.7°C 59% Calm Calm -- 29.80 in1009.1 mb - 0.00 in0.0 mm 1.75 in44.5 mm
06:00 PM 72.6°F22.6°C 57.0°F13.9°C 58% Calm Calm -- 29.80 in1009.1 mb - 0.00 in0.0 mm 1.75 in44.5 mm
06:10 PM 72.0°F22.2°C 56.4°F13.6°C 58% Calm Calm -- 29.80 in1009.1 mb - 0.00 in0.0 mm 1.75 in44.5 mm
06:20 PM 70.7°F21.5°C 55.7°F13.2°C 59% Calm Calm 1.2 mph1.9 kmh 29.80 in1009.1 mb - 0.00 in0.0 mm 1.75 in44.5 mm
06:30 PM 69.9°F21.1°C 55.4°F13.0°C 60% Calm Calm -- 29.80 in1009.1 mb - 0.00 in0.0 mm 1.75 in44.5 mm
06:40 PM 69.6°F20.9°C 55.6°F13.1°C 61% Calm Calm 3.5 mph5.6 kmh 29.81 in1009.5 mb - 0.00 in0.0 mm 1.75 in44.5 mm
06:50 PM 69.4°F20.8°C 55.8°F13.2°C 62% Calm Calm -- 29.81 in1009.5 mb - 0.00 in0.0 mm 1.75 in44.5 mm
07:00 PM 69.1°F20.6°C 55.5°F13.1°C 62% Calm Calm -- 29.81 in1009.5 mb - 0.00 in0.0 mm 1.75 in44.5 mm
07:10 PM 68.8°F20.4°C 56.2°F13.4°C 64% Calm Calm -- 29.81 in1009.5 mb - 0.00 in0.0 mm 1.75 in44.5 mm
07:20 PM 68.5°F20.3°C 55.8°F13.2°C 64% Calm Calm -- 29.82 in1009.8 mb - 0.00 in0.0 mm 1.75 in44.5 mm
07:30 PM 68.2°F20.1°C 56.8°F13.8°C 67% Calm Calm -- 29.82 in1009.8 mb - 0.00 in0.0 mm 1.75 in44.5 mm
07:40 PM 67.7°F19.8°C 57.2°F14.0°C 69% Calm Calm -- 29.82 in1009.8 mb - 0.00 in0.0 mm 1.75 in44.5 mm
07:50 PM 67.2°F19.6°C 57.1°F13.9°C 70% Calm Calm -- 29.82 in1009.8 mb - 0.00 in0.0 mm 1.75 in44.5 mm
08:00 PM 66.5°F19.2°C 57.2°F14.0°C 72% Calm Calm -- 29.82 in1009.8 mb - 0.00 in0.0 mm 1.75 in44.5 mm
08:10 PM 65.7°F18.7°C 57.2°F14.0°C 74% Calm Calm -- 29.83 in1010.2 mb - 0.00 in0.0 mm 1.75 in44.5 mm
08:20 PM 65.0°F18.3°C 57.2°F14.0°C 76% Calm Calm -- 29.83 in1010.2 mb - 0.00 in0.0 mm 1.75 in44.5 mm
08:30 PM 64.5°F18.1°C 57.1°F13.9°C 77% Calm Calm -- 29.83 in1010.2 mb - 0.00 in0.0 mm 1.75 in44.5 mm
08:40 PM 63.9°F17.7°C 57.3°F14.1°C 79% Calm Calm -- 29.83 in1010.2 mb - 0.00 in0.0 mm 1.75 in44.5 mm
08:50 PM 63.5°F17.5°C 56.9°F13.8°C 79% Calm Calm -- 29.84 in1010.5 mb - 0.00 in0.0 mm 1.75 in44.5 mm
09:00 PM 63.1°F17.3°C 56.8°F13.8°C 80% Calm Calm -- 29.84 in1010.5 mb - 0.00 in0.0 mm 1.75 in44.5 mm
09:10 PM 62.8°F17.1°C 56.8°F13.8°C 81% Calm Calm -- 29.84 in1010.5 mb - 0.00 in0.0 mm 1.75 in44.5 mm
09:20 PM 62.5°F16.9°C 56.9°F13.8°C 82% Calm Calm -- 29.84 in1010.5 mb - 0.00 in0.0 mm 1.75 in44.5 mm
09:30 PM 62.2°F16.8°C 56.6°F13.7°C 82% Calm Calm -- 29.84 in1010.5 mb - 0.00 in0.0 mm 1.75 in44.5 mm
09:40 PM 62.0°F16.7°C 56.8°F13.8°C 83% Calm Calm -- 29.84 in1010.5 mb - 0.00 in0.0 mm 1.75 in44.5 mm
09:50 PM 61.8°F16.6°C 56.9°F13.8°C 84% Calm Calm -- 29.84 in1010.5 mb - 0.00 in0.0 mm 1.75 in44.5 mm
10:00 PM 61.6°F16.4°C 56.7°F13.7°C 84% Calm Calm -- 29.84 in1010.5 mb - 0.00 in0.0 mm 1.75 in44.5 mm
10:10 PM 61.6°F16.4°C 57.0°F13.9°C 85% Calm Calm -- 29.84 in1010.5 mb - 0.00 in0.0 mm 1.75 in44.5 mm
10:20 PM 61.6°F16.4°C 57.0°F13.9°C 85% Calm Calm -- 29.84 in1010.5 mb - 0.00 in0.0 mm 1.75 in44.5 mm
10:30 PM 61.5°F16.4°C 57.0°F13.9°C 85% Calm Calm -- 29.84 in1010.5 mb - 0.00 in0.0 mm 1.75 in44.5 mm
10:40 PM 61.6°F16.4°C 57.0°F13.9°C 85% Calm Calm -- 29.84 in1010.5 mb - 0.00 in0.0 mm 1.75 in44.5 mm
10:50 PM 61.6°F16.4°C 57.0°F13.9°C 85% Calm Calm -- 29.84 in1010.5 mb - 0.00 in0.0 mm 1.75 in44.5 mm
11:00 PM 61.6°F16.4°C 57.4°F14.1°C 86% Calm Calm -- 29.84 in1010.5 mb - 0.00 in0.0 mm 1.95 in49.5 mm
11:10 PM 62.0°F16.7°C 57.4°F14.1°C 85% Calm Calm -- 29.84 in1010.5 mb - 0.00 in0.0 mm 1.95 in49.5 mm
11:20 PM 62.6°F17.0°C 57.3°F14.1°C 83% Calm Calm -- 29.84 in1010.5 mb - 0.00 in0.0 mm 1.95 in49.5 mm
11:30 PM 63.0°F17.2°C 57.4°F14.1°C 82% Calm Calm -- 29.84 in1010.5 mb - 0.00 in0.0 mm 1.95 in49.5 mm
11:40 PM 63.2°F17.3°C 57.6°F14.2°C 82% Calm Calm -- 29.84 in1010.5 mb - 0.00 in0.0 mm 1.95 in49.5 mm
11:50 PM 63.3°F17.4°C 57.4°F14.1°C 81% Calm Calm -- 29.84 in1010.5 mb - 0.00 in0.0 mm 1.95 in49.5 mm